createdAt,value
2022-10-21T00:01:00.683Z,12.60
2022-10-21T00:03:29.067Z,12.60
2022-10-21T00:05:57.398Z,12.60
2022-10-21T00:08:26.941Z,12.60
2022-10-21T00:10:56.888Z,12.60
2022-10-21T00:13:26.351Z,12.60
2022-10-21T00:16:02.156Z,12.60
2022-10-21T00:18:30.995Z,12.60
2022-10-21T00:20:59.077Z,12.60
2022-10-21T00:23:28.538Z,12.70
2022-10-21T00:26:00.167Z,12.70
2022-10-21T00:28:28.850Z,12.60
2022-10-21T00:30:58.324Z,12.70
2022-10-21T00:33:28.156Z,12.60
2022-10-21T00:35:57.754Z,12.60
2022-10-21T00:38:26.365Z,12.60
2022-10-21T00:40:56.163Z,12.60
2022-10-21T00:43:24.541Z,12.60
2022-10-21T00:45:56.180Z,12.70
2022-10-21T00:48:37.163Z,12.70
2022-10-21T00:51:07.723Z,12.70
2022-10-21T00:53:37.870Z,12.70
2022-10-21T00:56:15.442Z,12.80
2022-10-21T00:58:46.830Z,12.80
2022-10-21T01:01:17.949Z,12.80
2022-10-21T01:03:48.864Z,12.90
2022-10-21T01:06:17.991Z,12.90
2022-10-21T01:08:46.129Z,12.90
2022-10-21T01:11:18.869Z,13.00
2022-10-21T01:14:00.531Z,13.00
2022-10-21T01:16:36.646Z,13.00
2022-10-21T01:19:18.611Z,13.00
2022-10-21T01:21:54.723Z,13.00
2022-10-21T01:24:39.477Z,13.10
2022-10-21T01:27:17.183Z,13.10
2022-10-21T01:30:12.124Z,13.10
2022-10-21T01:33:02.759Z,13.10
2022-10-21T01:35:39.103Z,13.20
2022-10-21T01:38:11.799Z,13.20
2022-10-21T01:40:48.817Z,13.20
2022-10-21T01:43:24.637Z,13.20
2022-10-21T01:45:56.167Z,13.20
2022-10-21T01:48:30.303Z,13.20
2022-10-21T01:51:01.910Z,13.20
2022-10-21T01:53:34.533Z,13.20
2022-10-21T01:56:04.833Z,13.20
2022-10-21T01:58:36.149Z,13.20
2022-10-21T02:01:07.434Z,13.20
2022-10-21T02:03:41.358Z,13.20
2022-10-21T02:06:09.602Z,13.20
2022-10-21T02:08:37.690Z,13.10
2022-10-21T02:11:09.571Z,13.20
2022-10-21T02:13:43.160Z,13.20
2022-10-21T02:16:16.494Z,13.20
2022-10-21T02:18:45.908Z,13.20
2022-10-21T02:21:19.565Z,13.20
2022-10-21T02:23:53.357Z,13.20
2022-10-21T02:26:22.102Z,13.20
2022-10-21T02:28:51.161Z,13.20
2022-10-21T02:31:37.710Z,13.20
2022-10-21T02:34:17.196Z,13.20
2022-10-21T02:36:54.094Z,13.20
2022-10-21T02:39:29.986Z,13.30
2022-10-21T02:42:01.115Z,13.20
2022-10-21T02:44:29.131Z,13.20
2022-10-21T02:46:57.122Z,13.30
2022-10-21T02:49:26.567Z,13.30
2022-10-21T02:51:55.305Z,13.30
2022-10-21T02:54:23.489Z,13.30
2022-10-21T02:56:51.467Z,13.30
2022-10-21T02:59:19.511Z,13.30
2022-10-21T03:01:47.512Z,13.30
2022-10-21T03:04:15.532Z,13.40
2022-10-21T03:06:44.886Z,13.40
2022-10-21T03:09:12.965Z,13.40
2022-10-21T03:11:40.969Z,13.40
2022-10-21T03:14:09.003Z,13.50
2022-10-21T03:16:36.970Z,13.50
2022-10-21T03:19:05.004Z,13.50
2022-10-21T03:21:32.995Z,13.50
2022-10-21T03:24:02.578Z,13.50
2022-10-21T03:26:31.768Z,13.50
2022-10-21T03:28:59.778Z,13.50
2022-10-21T03:31:27.796Z,13.50
2022-10-21T03:33:55.863Z,13.50
2022-10-21T03:36:23.846Z,13.50
2022-10-21T03:38:51.867Z,13.50
2022-10-21T03:41:21.248Z,13.50
2022-10-21T03:43:49.354Z,13.50
2022-10-21T03:46:17.476Z,13.50
2022-10-21T03:48:45.483Z,13.50
2022-10-21T03:51:13.494Z,13.50
2022-10-21T03:53:43.718Z,13.50
2022-10-21T03:56:12.544Z,13.50
2022-10-21T03:58:42.868Z,13.60
2022-10-21T04:01:13.355Z,13.60
2022-10-21T04:03:41.897Z,13.60
2022-10-21T04:06:09.915Z,13.60
2022-10-21T04:08:38.023Z,13.60
2022-10-21T04:11:06.344Z,13.70
2022-10-21T04:13:34.378Z,13.60
2022-10-21T04:16:06.250Z,13.70
2022-10-21T04:18:34.416Z,13.70
2022-10-21T04:21:02.461Z,13.70
2022-10-21T04:23:30.467Z,13.70
2022-10-21T04:25:58.622Z,13.70
2022-10-21T04:28:26.679Z,13.70
2022-10-21T04:30:54.676Z,13.70
2022-10-21T04:33:24.087Z,13.80
2022-10-21T04:35:52.382Z,13.80
2022-10-21T04:38:20.402Z,13.80
2022-10-21T04:40:48.395Z,13.80
2022-10-21T04:43:16.419Z,13.80
2022-10-21T04:45:44.402Z,13.80
2022-10-21T04:48:13.679Z,13.80
2022-10-21T04:50:43.050Z,13.80
2022-10-21T04:53:11.416Z,13.80
2022-10-21T04:55:40.453Z,13.90
2022-10-21T04:58:08.519Z,13.90
2022-10-21T05:00:36.698Z,13.90
2022-10-21T05:03:05.057Z,14.00
2022-10-21T05:05:33.048Z,14.00
2022-10-21T05:08:02.448Z,14.00
2022-10-21T05:10:31.131Z,14.00
2022-10-21T05:12:59.318Z,14.00
2022-10-21T05:15:27.810Z,14.00
2022-10-21T05:17:55.843Z,14.10
2022-10-21T05:20:23.846Z,14.10
2022-10-21T05:22:52.286Z,14.10
2022-10-21T05:25:23.006Z,14.10
2022-10-21T05:27:51.960Z,14.10
2022-10-21T05:30:20.079Z,14.10
2022-10-21T05:32:48.156Z,14.10
2022-10-21T05:35:16.356Z,14.00
2022-10-21T05:37:44.363Z,14.10
2022-10-21T05:40:13.320Z,14.10
2022-10-21T05:42:42.707Z,14.10
2022-10-21T05:45:11.790Z,14.10
2022-10-21T05:47:39.942Z,14.10
2022-10-21T05:50:09.400Z,14.20
2022-10-21T05:52:37.952Z,14.20
2022-10-21T05:55:07.310Z,14.20
2022-10-21T05:57:35.931Z,14.20
2022-10-21T06:00:06.325Z,14.20
2022-10-21T06:02:34.662Z,14.20
2022-10-21T06:05:02.788Z,14.20
2022-10-21T06:07:30.782Z,14.20
2022-10-21T06:09:58.798Z,14.20
2022-10-21T06:12:26.835Z,14.20
2022-10-21T06:14:55.667Z,14.30
2022-10-21T06:17:25.092Z,14.30
2022-10-21T06:19:53.146Z,14.30
2022-10-21T06:22:21.160Z,14.30
2022-10-21T06:24:49.612Z,14.30
2022-10-21T06:27:17.714Z,14.30
2022-10-21T06:29:45.726Z,14.30
2022-10-21T06:32:13.746Z,14.30
2022-10-21T06:34:43.126Z,14.40
2022-10-21T06:37:11.127Z,14.40
2022-10-21T06:39:39.140Z,14.40
2022-10-21T06:42:07.128Z,14.40
2022-10-21T06:44:35.206Z,14.40
2022-10-21T06:47:03.189Z,14.40
2022-10-21T06:49:31.432Z,14.50
2022-10-21T06:52:00.797Z,14.50
2022-10-21T06:54:28.950Z,14.50
2022-10-21T06:56:57.042Z,14.50
2022-10-21T06:59:25.068Z,14.50
2022-10-21T07:02:00.098Z,14.50
2022-10-21T07:04:29.055Z,14.50
2022-10-21T07:06:57.078Z,14.50
2022-10-21T07:09:26.540Z,14.50
2022-10-21T07:11:54.742Z,14.50
2022-10-21T07:14:22.776Z,14.50
2022-10-21T07:16:51.556Z,14.50
2022-10-21T07:19:19.590Z,14.50
2022-10-21T07:21:47.625Z,14.60
2022-10-21T07:24:18.711Z,14.60
2022-10-21T07:26:49.434Z,14.60
2022-10-21T07:29:17.692Z,14.60
2022-10-21T07:31:45.764Z,14.60
2022-10-21T07:34:14.038Z,14.60
2022-10-21T07:36:44.367Z,14.60
2022-10-21T07:39:14.970Z,14.60
2022-10-21T07:41:45.139Z,14.60
2022-10-21T07:44:15.032Z,14.60
2022-10-21T07:46:44.210Z,14.60
2022-10-21T07:49:13.151Z,14.60
2022-10-21T07:51:41.564Z,14.70
2022-10-21T07:54:10.487Z,14.70
2022-10-21T07:56:41.692Z,14.70
2022-10-21T07:59:12.861Z,14.70
2022-10-21T08:04:24.645Z,14.70
2022-10-21T08:06:52.698Z,14.70
2022-10-21T08:09:20.720Z,14.70
2022-10-21T08:11:49.191Z,14.70
2022-10-21T08:14:17.243Z,14.80
2022-10-21T08:16:46.624Z,14.80
2022-10-21T08:19:21.001Z,14.80
2022-10-21T08:21:49.159Z,14.70
2022-10-21T08:24:17.795Z,14.80
2022-10-21T08:26:45.765Z,14.80
2022-10-21T08:29:13.768Z,14.80
2022-10-21T08:31:41.806Z,14.80
2022-10-21T08:34:11.276Z,14.80
2022-10-21T08:36:39.986Z,14.80
2022-10-21T08:39:08.256Z,14.80
2022-10-21T08:41:49.612Z,14.80
2022-10-21T08:44:31.031Z,14.80
2022-10-21T08:47:05.364Z,14.80
2022-10-21T08:49:45.240Z,14.80
2022-10-21T08:52:16.583Z,14.80
2022-10-21T08:54:48.613Z,14.80
2022-10-21T08:57:16.648Z,14.80
2022-10-21T08:59:44.780Z,14.80
2022-10-21T09:02:28.211Z,14.80
2022-10-21T09:05:19.939Z,14.80
2022-10-21T09:07:59.540Z,14.70
2022-10-21T09:10:34.939Z,14.70
2022-10-21T09:13:10.291Z,14.70
2022-10-21T09:15:46.165Z,14.70
2022-10-21T09:18:26.544Z,14.70
2022-10-21T09:21:05.893Z,14.70
2022-10-21T09:23:43.631Z,14.70
2022-10-21T09:26:30.158Z,14.70
2022-10-21T09:28:58.601Z,14.70
2022-10-21T09:31:26.574Z,14.70
2022-10-21T09:33:59.447Z,14.70
2022-10-21T09:36:35.380Z,14.70
2022-10-21T09:39:07.984Z,14.70
2022-10-21T09:41:40.958Z,14.70
2022-10-21T09:44:17.114Z,14.70
2022-10-21T09:46:46.712Z,14.70
2022-10-21T09:49:54.001Z,14.80
2022-10-21T09:52:13.502Z,14.80
2022-10-21T09:54:43.288Z,14.80
2022-10-21T09:57:15.360Z,14.90
2022-10-21T09:59:54.383Z,14.90
2022-10-21T10:02:29.342Z,14.90
2022-10-21T10:04:57.591Z,14.90
2022-10-21T10:07:34.781Z,14.90
2022-10-21T10:10:03.618Z,14.90
2022-10-21T10:12:31.627Z,14.90
2022-10-21T10:15:28.135Z,14.90
2022-10-21T10:17:59.058Z,14.90
2022-10-21T10:20:27.153Z,14.90
2022-10-21T10:23:17.341Z,14.90
2022-10-21T10:25:51.468Z,15.00
2022-10-21T10:28:24.776Z,15.00
2022-10-21T10:30:56.105Z,15.00
2022-10-21T10:33:27.812Z,15.00
2022-10-21T10:35:58.729Z,14.90
2022-10-21T10:38:32.927Z,15.00
2022-10-21T10:41:07.124Z,14.90
2022-10-21T10:43:38.272Z,14.90
2022-10-21T10:46:10.251Z,15.00
2022-10-21T10:48:42.548Z,14.90
2022-10-21T10:51:27.595Z,14.90
2022-10-21T10:54:16.391Z,14.90
2022-10-21T10:56:48.975Z,14.90
2022-10-21T10:59:22.886Z,14.90
2022-10-21T11:01:58.240Z,14.90
2022-10-21T11:04:31.956Z,14.90
2022-10-21T11:07:05.357Z,14.90
2022-10-21T11:09:35.515Z,14.80
2022-10-21T11:12:07.304Z,14.90
2022-10-21T11:14:35.702Z,14.90
2022-10-21T11:17:11.181Z,14.90
2022-10-21T11:19:50.421Z,14.90
2022-10-21T11:22:33.420Z,15.00
2022-10-21T11:25:10.086Z,15.00
2022-10-21T11:27:49.823Z,15.00
2022-10-21T11:30:20.751Z,15.00
2022-10-21T11:33:03.148Z,15.00
2022-10-21T11:35:51.324Z,15.10
2022-10-21T11:38:45.686Z,15.00
2022-10-21T11:41:29.596Z,15.10
2022-10-21T11:44:16.078Z,15.20
2022-10-21T11:46:56.006Z,15.10
2022-10-21T11:49:37.300Z,15.20
2022-10-21T11:52:17.208Z,15.20
2022-10-21T11:55:12.774Z,15.20
2022-10-21T11:57:53.060Z,15.20
2022-10-21T12:00:23.883Z,15.20
2022-10-21T12:03:15.236Z,15.30
2022-10-21T12:05:52.752Z,15.30
2022-10-21T12:11:01.995Z,15.30
2022-10-21T12:13:34.824Z,15.30
2022-10-21T12:16:07.251Z,15.30
2022-10-21T12:18:40.768Z,15.30
2022-10-21T12:21:15.568Z,15.30
2022-10-21T12:23:45.220Z,15.30
2022-10-21T12:26:20.545Z,15.30
2022-10-21T12:28:56.949Z,15.30
2022-10-21T12:31:39.596Z,15.30
2022-10-21T12:34:10.542Z,15.30
2022-10-21T12:36:41.637Z,15.30
2022-10-21T12:39:16.721Z,15.30
2022-10-21T12:41:46.653Z,15.30
2022-10-21T12:44:28.831Z,15.30
2022-10-21T12:47:01.972Z,15.30
2022-10-21T12:49:32.696Z,15.20
2022-10-21T12:52:09.476Z,15.30
2022-10-21T12:54:44.340Z,15.30
2022-10-21T12:57:23.460Z,15.30
2022-10-21T12:59:53.097Z,15.30
2022-10-21T13:02:53.611Z,15.30
2022-10-21T13:06:06.024Z,15.30
2022-10-21T13:08:52.894Z,15.30
2022-10-21T13:11:24.008Z,15.40
2022-10-21T13:14:25.420Z,15.40
2022-10-21T13:17:14.615Z,15.40
2022-10-21T13:19:42.843Z,15.40
2022-10-21T13:22:15.580Z,15.50
2022-10-21T13:24:44.393Z,15.60
2022-10-21T13:27:28.370Z,15.60
2022-10-21T13:29:56.950Z,15.60
2022-10-21T13:32:31.831Z,15.70
2022-10-21T13:35:34.479Z,15.70
2022-10-21T13:38:05.978Z,15.80
2022-10-21T13:40:39.938Z,15.90
2022-10-21T13:43:14.750Z,15.90
2022-10-21T13:45:48.959Z,16.00
2022-10-21T13:48:19.746Z,16.00
2022-10-21T13:50:49.850Z,16.10
2022-10-21T13:53:28.475Z,16.40
2022-10-21T13:55:59.196Z,16.60
2022-10-21T13:58:28.720Z,16.70
2022-10-21T14:00:59.053Z,16.70
2022-10-21T14:03:29.010Z,16.70
2022-10-21T14:06:00.482Z,16.90
2022-10-21T14:08:33.179Z,17.00
2022-10-21T14:11:03.750Z,17.00
2022-10-21T14:13:36.869Z,16.90
2022-10-21T14:16:05.829Z,16.80
2022-10-21T14:18:38.221Z,16.70
2022-10-21T14:21:07.331Z,16.60
2022-10-21T14:23:35.994Z,16.50
2022-10-21T14:26:08.145Z,16.50
2022-10-21T14:28:37.736Z,16.50
2022-10-21T14:33:45.877Z,16.50
2022-10-21T14:36:18.792Z,16.50
2022-10-21T14:38:54.646Z,16.50
2022-10-21T14:41:26.204Z,16.40
2022-10-21T14:43:55.747Z,16.40
2022-10-21T14:46:23.909Z,16.40
2022-10-21T14:48:59.542Z,16.30
2022-10-21T14:51:28.614Z,16.40
2022-10-21T14:53:59.710Z,16.40
2022-10-21T14:56:33.973Z,16.40
2022-10-21T14:59:09.570Z,16.30
2022-10-21T15:01:44.206Z,16.20
2022-10-21T15:04:42.618Z,16.30
2022-10-21T15:07:28.925Z,16.20
2022-10-21T15:10:19.034Z,16.20
2022-10-21T15:12:50.523Z,16.20
2022-10-21T15:15:44.506Z,16.10
2022-10-21T15:18:17.755Z,16.10
2022-10-21T15:20:56.877Z,16.10
2022-10-21T15:23:28.639Z,16.10
2022-10-21T15:26:00.424Z,16.10
2022-10-21T15:28:31.925Z,16.10
2022-10-21T15:31:00.668Z,16.00
2022-10-21T15:33:28.956Z,16.00
2022-10-21T15:36:09.554Z,16.00
2022-10-21T15:38:38.374Z,16.00
2022-10-21T15:41:06.578Z,16.00
2022-10-21T15:43:34.621Z,15.90
2022-10-21T15:46:02.622Z,16.00
2022-10-21T15:48:30.654Z,15.90
2022-10-21T15:50:58.913Z,15.90
2022-10-21T15:53:28.359Z,15.90
2022-10-21T15:55:56.501Z,15.90
2022-10-21T15:58:24.523Z,15.90
2022-10-21T16:00:53.399Z,15.90
2022-10-21T16:03:22.876Z,15.90
2022-10-21T16:05:51.224Z,15.90
2022-10-21T16:08:19.275Z,15.90
2022-10-21T16:10:49.979Z,15.90
2022-10-21T16:13:18.020Z,15.90
2022-10-21T16:15:46.115Z,15.90
2022-10-21T16:18:16.291Z,15.90
2022-10-21T16:20:44.513Z,15.90
2022-10-21T16:23:12.658Z,15.80
2022-10-21T16:25:40.799Z,15.90
2022-10-21T16:28:12.252Z,15.80
2022-10-21T16:30:41.800Z,15.90
2022-10-21T16:33:11.192Z,15.90
2022-10-21T16:35:39.288Z,15.80
2022-10-21T16:38:07.362Z,15.80
2022-10-21T16:40:36.334Z,15.80
2022-10-21T16:43:04.348Z,15.80
2022-10-21T16:45:34.342Z,15.80
2022-10-21T16:48:05.571Z,15.80
2022-10-21T16:50:39.422Z,15.80
2022-10-21T16:53:08.123Z,15.80
2022-10-21T16:55:36.130Z,15.80
2022-10-21T16:58:04.134Z,15.80
2022-10-21T17:00:33.770Z,15.80
2022-10-21T17:03:02.347Z,15.80
2022-10-21T17:05:30.409Z,15.80
2022-10-21T17:08:00.010Z,15.80
2022-10-21T17:10:28.123Z,15.80
2022-10-21T17:12:58.974Z,15.80
2022-10-21T17:15:28.645Z,15.80
2022-10-21T17:17:59.240Z,15.80
2022-10-21T17:20:30.386Z,15.80
2022-10-21T17:22:58.761Z,15.80
2022-10-21T17:25:27.431Z,15.80
2022-10-21T17:27:55.522Z,15.80
2022-10-21T17:30:24.542Z,15.70
2022-10-21T17:32:53.100Z,15.80
2022-10-21T17:35:22.605Z,15.80
2022-10-21T17:37:51.899Z,15.80
2022-10-21T17:40:21.985Z,15.70
2022-10-21T17:42:50.483Z,15.70
2022-10-21T17:45:19.759Z,15.70
2022-10-21T17:47:47.798Z,15.70
2022-10-21T17:50:18.487Z,15.70
2022-10-21T17:52:47.873Z,15.70
2022-10-21T17:55:15.910Z,15.70
2022-10-21T17:57:44.029Z,15.70
2022-10-21T18:00:12.891Z,15.70
2022-10-21T18:02:41.199Z,15.70
2022-10-21T18:05:10.920Z,15.70
2022-10-21T18:07:39.266Z,15.70
2022-10-21T18:10:09.975Z,15.70
2022-10-21T18:12:38.219Z,15.70
2022-10-21T18:15:07.302Z,15.60
2022-10-21T18:17:37.292Z,15.60
2022-10-21T18:20:07.067Z,15.60
2022-10-21T18:22:35.179Z,15.70
2022-10-21T18:25:03.232Z,15.70
2022-10-21T18:27:32.704Z,15.60
2022-10-21T18:30:00.755Z,15.70
2022-10-21T18:32:28.749Z,15.60
2022-10-21T18:34:56.767Z,15.70
2022-10-21T18:37:24.797Z,15.70
2022-10-21T18:39:56.660Z,15.70
2022-10-21T18:42:26.988Z,15.70
2022-10-21T18:44:56.382Z,15.70
2022-10-21T18:47:24.482Z,15.70
2022-10-21T18:49:52.515Z,15.70
2022-10-21T18:52:20.714Z,15.70
2022-10-21T18:54:48.749Z,15.70
2022-10-21T18:57:16.761Z,15.60
2022-10-21T18:59:44.799Z,15.70
2022-10-21T19:02:20.564Z,15.70
2022-10-21T19:04:48.680Z,15.70
2022-10-21T19:07:16.744Z,15.70
2022-10-21T19:09:45.059Z,15.70
2022-10-21T19:12:16.375Z,15.80
2022-10-21T19:14:47.992Z,15.70
2022-10-21T19:17:17.389Z,15.70
2022-10-21T19:19:45.435Z,15.70
2022-10-21T19:22:14.579Z,15.70
2022-10-21T19:24:42.600Z,15.70
2022-10-21T19:27:10.695Z,15.70
2022-10-21T19:29:38.707Z,15.70
2022-10-21T19:32:06.826Z,15.70
2022-10-21T19:34:36.246Z,15.70
2022-10-21T19:37:04.236Z,15.60
2022-10-21T19:39:32.382Z,15.60
2022-10-21T19:42:00.498Z,15.60
2022-10-21T19:44:28.740Z,15.60
2022-10-21T19:46:56.742Z,15.60
2022-10-21T19:49:24.742Z,15.60
2022-10-21T19:51:54.232Z,15.60
2022-10-21T19:54:22.363Z,15.60
2022-10-21T19:56:50.355Z,15.60
2022-10-21T20:01:51.336Z,15.60
2022-10-21T20:04:19.525Z,15.60
2022-10-21T20:06:47.834Z,15.60
2022-10-21T20:09:17.332Z,15.60
2022-10-21T20:11:45.384Z,15.60
2022-10-21T20:14:13.971Z,15.60
2022-10-21T20:16:43.229Z,15.60
2022-10-21T20:19:13.423Z,15.60
2022-10-21T20:21:41.993Z,15.70
2022-10-21T20:24:11.448Z,15.70
2022-10-21T20:26:40.841Z,15.70
2022-10-21T20:29:09.007Z,15.70
2022-10-21T20:31:36.989Z,15.70
2022-10-21T20:34:05.012Z,15.70
2022-10-21T20:36:33.724Z,15.60
2022-10-21T20:39:02.987Z,15.60
2022-10-21T20:41:34.518Z,15.70
2022-10-21T20:44:05.651Z,15.70
2022-10-21T20:46:35.696Z,15.70
2022-10-21T20:49:05.230Z,15.70
2022-10-21T20:51:33.962Z,15.60
2022-10-21T20:54:03.701Z,15.60
2022-10-21T20:56:34.074Z,15.60
2022-10-21T20:59:04.091Z,15.70
2022-10-21T21:01:34.448Z,15.60
2022-10-21T21:04:04.787Z,15.60
2022-10-21T21:06:37.550Z,15.60
2022-10-21T21:09:33.230Z,15.60
2022-10-21T21:11:53.948Z,15.60
2022-10-21T21:14:23.452Z,15.60
2022-10-21T21:16:51.477Z,15.60
2022-10-21T21:19:20.780Z,15.60
2022-10-21T21:21:49.750Z,15.60
2022-10-21T21:24:17.841Z,15.60
2022-10-21T21:26:45.985Z,15.60
2022-10-21T21:29:15.050Z,15.60
2022-10-21T21:31:44.989Z,15.60
2022-10-21T21:34:13.298Z,15.60
2022-10-21T21:36:41.497Z,15.60
2022-10-21T21:39:11.068Z,15.60
2022-10-21T21:41:39.175Z,15.60
2022-10-21T21:44:07.747Z,15.50
2022-10-21T21:46:35.841Z,15.60
2022-10-21T21:49:06.459Z,15.60
2022-10-21T21:51:36.388Z,15.60
2022-10-21T21:54:07.631Z,15.60
2022-10-21T21:56:36.084Z,15.60
2022-10-21T21:59:04.129Z,15.60
2022-10-21T22:01:32.269Z,15.60
2022-10-21T22:04:01.518Z,15.60
2022-10-21T22:06:32.549Z,15.50
2022-10-21T22:09:01.208Z,15.50
2022-10-21T22:11:31.131Z,15.50
2022-10-21T22:13:59.763Z,15.50
2022-10-21T22:16:30.312Z,15.50
2022-10-21T22:19:00.912Z,15.50
2022-10-21T22:21:31.756Z,15.50
2022-10-21T22:23:59.850Z,15.60
2022-10-21T22:26:27.890Z,15.50
2022-10-21T22:28:55.976Z,15.50
2022-10-21T22:31:29.109Z,15.60
2022-10-21T22:33:59.877Z,15.50
2022-10-21T22:36:28.036Z,15.50
2022-10-21T22:38:57.407Z,15.50
2022-10-21T22:41:25.456Z,15.50
2022-10-21T22:43:53.465Z,15.50
2022-10-21T22:46:29.743Z,15.50
2022-10-21T22:49:02.046Z,15.50
2022-10-21T22:51:30.061Z,15.50
2022-10-21T22:53:59.433Z,15.50
2022-10-21T22:56:27.989Z,15.50
2022-10-21T22:58:57.213Z,15.50
2022-10-21T23:01:28.959Z,15.50
2022-10-21T23:03:57.971Z,15.50
2022-10-21T23:06:25.984Z,15.50
2022-10-21T23:08:54.055Z,15.50
2022-10-21T23:11:23.477Z,15.50
2022-10-21T23:14:02.484Z,15.50
2022-10-21T23:16:31.079Z,15.50
2022-10-21T23:18:59.163Z,15.40
2022-10-21T23:21:27.387Z,15.50
2022-10-21T23:23:55.519Z,15.50
2022-10-21T23:26:24.977Z,15.50
2022-10-21T23:28:53.078Z,15.60
2022-10-21T23:31:21.126Z,15.60
2022-10-21T23:33:49.140Z,15.50
2022-10-21T23:36:17.203Z,15.50
2022-10-21T23:38:45.240Z,15.60
2022-10-21T23:41:13.303Z,15.60
2022-10-21T23:43:42.671Z,15.60
2022-10-21T23:46:10.749Z,15.60
2022-10-21T23:48:38.743Z,15.60
2022-10-21T23:51:07.065Z,15.70
2022-10-21T23:53:35.053Z,15.60
2022-10-21T23:56:03.099Z,15.60
2022-10-21T23:58:31.147Z,15.60
